sensor_id;sensor_type;location;lat;lon;timestamp;P1;durP1;ratioP1;P2;durP2;ratioP2
18776;SDS011;9517;51.174;4.160;2023-05-10T00:23:11;38.60;;;16.13;;
18776;SDS011;9517;51.174;4.160;2023-05-10T00:25:38;35.87;;;16.77;;
18776;SDS011;9517;51.174;4.160;2023-05-10T00:28:05;38.07;;;16.87;;
18776;SDS011;9517;51.174;4.160;2023-05-10T00:30:32;42.70;;;18.27;;
18776;SDS011;9517;51.174;4.160;2023-05-10T00:32:59;39.60;;;17.03;;
18776;SDS011;9517;51.174;4.160;2023-05-10T00:35:27;43.03;;;20.00;;
18776;SDS011;9517;51.174;4.160;2023-05-10T00:37:55;43.20;;;18.40;;
18776;SDS011;9517;51.174;4.160;2023-05-10T00:40:23;45.70;;;20.73;;
18776;SDS011;9517;51.174;4.160;2023-05-10T00:42:51;40.13;;;19.83;;
18776;SDS011;9517;51.174;4.160;2023-05-10T00:45:18;45.27;;;21.50;;
18776;SDS011;9517;51.174;4.160;2023-05-10T00:47:57;48.73;;;23.53;;
18776;SDS011;9517;51.174;4.160;2023-05-10T00:50:25;51.97;;;22.53;;
18776;SDS011;9517;51.174;4.160;2023-05-10T00:52:53;54.57;;;24.47;;
18776;SDS011;9517;51.174;4.160;2023-05-10T00:55:20;50.70;;;25.33;;
18776;SDS011;9517;51.174;4.160;2023-05-10T00:57:49;53.10;;;24.93;;
18776;SDS011;9517;51.174;4.160;2023-05-10T01:00:17;51.37;;;23.83;;
18776;SDS011;9517;51.174;4.160;2023-05-10T01:02:44;54.90;;;23.13;;
18776;SDS011;9517;51.174;4.160;2023-05-10T01:05:12;49.87;;;23.13;;
18776;SDS011;9517;51.174;4.160;2023-05-10T01:07:40;54.63;;;25.20;;
18776;SDS011;9517;51.174;4.160;2023-05-10T01:10:07;51.00;;;22.97;;
18776;SDS011;9517;51.174;4.160;2023-05-10T01:12:36;48.60;;;22.27;;
18776;SDS011;9517;51.174;4.160;2023-05-10T01:15:08;48.90;;;23.57;;
18776;SDS011;9517;51.174;4.160;2023-05-10T01:17:37;51.47;;;23.77;;
18776;SDS011;9517;51.174;4.160;2023-05-10T01:20:07;49.40;;;23.70;;
18776;SDS011;9517;51.174;4.160;2023-05-10T01:22:46;50.17;;;23.23;;
18776;SDS011;9517;51.174;4.160;2023-05-10T01:25:32;49.93;;;24.67;;
18776;SDS011;9517;51.174;4.160;2023-05-10T01:28:33;48.67;;;24.50;;
18776;SDS011;9517;51.174;4.160;2023-05-10T01:31:32;49.57;;;25.07;;
18776;SDS011;9517;51.174;4.160;2023-05-10T01:34:19;52.10;;;23.40;;
18776;SDS011;9517;51.174;4.160;2023-05-10T01:36:51;54.47;;;26.40;;
18776;SDS011;9517;51.174;4.160;2023-05-10T01:39:28;51.63;;;26.20;;
18776;SDS011;9517;51.174;4.160;2023-05-10T01:42:01;51.43;;;25.17;;
18776;SDS011;9517;51.174;4.160;2023-05-10T01:44:35;51.77;;;25.67;;
18776;SDS011;9517;51.174;4.160;2023-05-10T01:47:07;51.67;;;25.77;;
18776;SDS011;9517;51.174;4.160;2023-05-10T01:49:41;52.47;;;26.63;;
18776;SDS011;9517;51.174;4.160;2023-05-10T01:52:13;49.77;;;24.93;;
18776;SDS011;9517;51.174;4.160;2023-05-10T01:54:44;50.20;;;25.07;;
18776;SDS011;9517;51.174;4.160;2023-05-10T01:57:19;46.63;;;24.40;;
18776;SDS011;9517;51.174;4.160;2023-05-10T01:59:49;57.87;;;26.63;;
18776;SDS011;9517;51.174;4.160;2023-05-10T02:02:17;56.20;;;25.77;;
18776;SDS011;9517;51.174;4.160;2023-05-10T02:04:47;54.63;;;27.83;;
18776;SDS011;9517;51.174;4.160;2023-05-10T02:07:17;57.03;;;27.30;;
18776;SDS011;9517;51.174;4.160;2023-05-10T02:09:45;55.43;;;27.83;;
18776;SDS011;9517;51.174;4.160;2023-05-10T02:12:14;52.93;;;27.83;;
18776;SDS011;9517;51.174;4.160;2023-05-10T02:14:42;60.40;;;30.20;;
18776;SDS011;9517;51.174;4.160;2023-05-10T02:17:10;63.00;;;30.83;;
18776;SDS011;9517;51.174;4.160;2023-05-10T02:19:40;59.53;;;30.53;;
18776;SDS011;9517;51.174;4.160;2023-05-10T02:22:09;59.17;;;30.67;;
18776;SDS011;9517;51.174;4.160;2023-05-10T02:24:38;67.33;;;31.77;;
18776;SDS011;9517;51.174;4.160;2023-05-10T02:27:06;73.03;;;35.47;;
18776;SDS011;9517;51.174;4.160;2023-05-10T02:29:40;84.47;;;40.60;;
18776;SDS011;9517;51.174;4.160;2023-05-10T02:35:40;162.97;;;70.20;;
18776;SDS011;9517;51.174;4.160;2023-05-10T02:38:13;145.93;;;64.03;;
18776;SDS011;9517;51.174;4.160;2023-05-10T02:40:42;136.30;;;59.43;;
18776;SDS011;9517;51.174;4.160;2023-05-10T02:43:12;138.57;;;61.57;;
18776;SDS011;9517;51.174;4.160;2023-05-10T02:45:40;141.57;;;64.53;;
18776;SDS011;9517;51.174;4.160;2023-05-10T02:48:09;138.13;;;60.43;;
18776;SDS011;9517;51.174;4.160;2023-05-10T02:50:36;138.97;;;64.93;;
18776;SDS011;9517;51.174;4.160;2023-05-10T02:53:09;129.07;;;57.87;;
18776;SDS011;9517;51.174;4.160;2023-05-10T02:55:42;124.83;;;58.30;;
18776;SDS011;9517;51.174;4.160;2023-05-10T02:58:12;114.83;;;54.17;;
18776;SDS011;9517;51.174;4.160;2023-05-10T03:00:40;103.77;;;49.43;;
18776;SDS011;9517;51.174;4.160;2023-05-10T03:03:07;96.17;;;44.73;;
18776;SDS011;9517;51.174;4.160;2023-05-10T03:05:34;85.97;;;40.70;;
18776;SDS011;9517;51.174;4.160;2023-05-10T03:08:01;81.20;;;39.70;;
18776;SDS011;9517;51.174;4.160;2023-05-10T03:10:32;84.90;;;38.30;;
18776;SDS011;9517;51.174;4.160;2023-05-10T03:13:06;74.10;;;34.77;;
18776;SDS011;9517;51.174;4.160;2023-05-10T03:15:42;78.00;;;34.83;;
18776;SDS011;9517;51.174;4.160;2023-05-10T03:18:15;77.00;;;35.97;;
18776;SDS011;9517;51.174;4.160;2023-05-10T03:20:48;76.50;;;34.70;;
18776;SDS011;9517;51.174;4.160;2023-05-10T03:23:20;73.37;;;33.23;;
18776;SDS011;9517;51.174;4.160;2023-05-10T03:25:51;75.43;;;32.03;;
18776;SDS011;9517;51.174;4.160;2023-05-10T03:28:20;82.40;;;35.33;;
18776;SDS011;9517;51.174;4.160;2023-05-10T03:30:48;74.50;;;32.23;;
18776;SDS011;9517;51.174;4.160;2023-05-10T03:33:18;78.50;;;34.03;;
18776;SDS011;9517;51.174;4.160;2023-05-10T03:35:45;82.40;;;37.03;;
18776;SDS011;9517;51.174;4.160;2023-05-10T03:38:13;86.17;;;39.57;;
18776;SDS011;9517;51.174;4.160;2023-05-10T03:40:40;88.70;;;36.93;;
18776;SDS011;9517;51.174;4.160;2023-05-10T03:43:09;79.33;;;33.33;;
18776;SDS011;9517;51.174;4.160;2023-05-10T03:45:36;76.97;;;33.57;;
18776;SDS011;9517;51.174;4.160;2023-05-10T03:48:03;72.30;;;33.33;;
18776;SDS011;9517;51.174;4.160;2023-05-10T03:50:31;76.33;;;34.10;;
18776;SDS011;9517;51.174;4.160;2023-05-10T03:52:58;69.57;;;33.20;;
18776;SDS011;9517;51.174;4.160;2023-05-10T03:55:25;77.83;;;34.97;;
18776;SDS011;9517;51.174;4.160;2023-05-10T03:57:53;71.33;;;32.47;;
18776;SDS011;9517;51.174;4.160;2023-05-10T04:00:21;69.77;;;33.17;;
18776;SDS011;9517;51.174;4.160;2023-05-10T04:02:49;71.00;;;32.73;;
18776;SDS011;9517;51.174;4.160;2023-05-10T04:05:16;71.40;;;31.03;;
18776;SDS011;9517;51.174;4.160;2023-05-10T04:07:43;71.33;;;33.60;;
18776;SDS011;9517;51.174;4.160;2023-05-10T04:10:10;70.43;;;33.70;;
18776;SDS011;9517;51.174;4.160;2023-05-10T04:12:38;67.40;;;33.47;;
18776;SDS011;9517;51.174;4.160;2023-05-10T04:15:05;69.00;;;33.90;;
18776;SDS011;9517;51.174;4.160;2023-05-10T04:17:35;72.37;;;35.07;;
18776;SDS011;9517;51.174;4.160;2023-05-10T04:20:03;73.57;;;34.33;;
18776;SDS011;9517;51.174;4.160;2023-05-10T04:22:31;72.83;;;35.23;;
18776;SDS011;9517;51.174;4.160;2023-05-10T04:24:58;71.23;;;34.40;;
18776;SDS011;9517;51.174;4.160;2023-05-10T04:27:26;72.47;;;34.90;;
18776;SDS011;9517;51.174;4.160;2023-05-10T04:29:53;69.80;;;35.43;;
18776;SDS011;9517;51.174;4.160;2023-05-10T04:32:20;67.37;;;34.37;;
18776;SDS011;9517;51.174;4.160;2023-05-10T04:34:48;66.80;;;34.27;;
18776;SDS011;9517;51.174;4.160;2023-05-10T04:37:16;71.57;;;35.80;;
18776;SDS011;9517;51.174;4.160;2023-05-10T04:39:43;68.40;;;35.53;;
18776;SDS011;9517;51.174;4.160;2023-05-10T04:42:10;69.60;;;34.87;;
18776;SDS011;9517;51.174;4.160;2023-05-10T04:44:39;71.60;;;35.53;;
18776;SDS011;9517;51.174;4.160;2023-05-10T04:47:07;63.10;;;32.07;;
18776;SDS011;9517;51.174;4.160;2023-05-10T04:49:35;65.47;;;34.50;;
18776;SDS011;9517;51.174;4.160;2023-05-10T04:52:03;67.43;;;34.77;;
18776;SDS011;9517;51.174;4.160;2023-05-10T04:54:30;68.37;;;35.87;;
18776;SDS011;9517;51.174;4.160;2023-05-10T04:56:57;65.43;;;34.57;;
18776;SDS011;9517;51.174;4.160;2023-05-10T04:59:25;67.20;;;35.63;;
18776;SDS011;9517;51.174;4.160;2023-05-10T05:01:52;67.27;;;35.40;;
18776;SDS011;9517;51.174;4.160;2023-05-10T05:04:19;65.67;;;34.90;;
18776;SDS011;9517;51.174;4.160;2023-05-10T05:06:48;69.30;;;35.57;;
18776;SDS011;9517;51.174;4.160;2023-05-10T05:09:17;66.47;;;34.50;;
18776;SDS011;9517;51.174;4.160;2023-05-10T05:11:44;59.57;;;32.73;;
18776;SDS011;9517;51.174;4.160;2023-05-10T05:14:12;63.27;;;34.70;;
18776;SDS011;9517;51.174;4.160;2023-05-10T05:16:39;62.67;;;34.13;;
18776;SDS011;9517;51.174;4.160;2023-05-10T05:19:06;67.53;;;35.40;;
18776;SDS011;9517;51.174;4.160;2023-05-10T05:21:33;64.60;;;33.87;;
18776;SDS011;9517;51.174;4.160;2023-05-10T05:24:00;64.60;;;35.33;;
18776;SDS011;9517;51.174;4.160;2023-05-10T05:26:29;61.63;;;34.00;;
18776;SDS011;9517;51.174;4.160;2023-05-10T05:28:56;65.30;;;35.30;;
18776;SDS011;9517;51.174;4.160;2023-05-10T05:31:23;62.97;;;34.80;;
18776;SDS011;9517;51.174;4.160;2023-05-10T05:33:50;60.00;;;32.27;;
18776;SDS011;9517;51.174;4.160;2023-05-10T05:36:17;58.93;;;33.73;;
18776;SDS011;9517;51.174;4.160;2023-05-10T05:38:44;56.63;;;32.80;;
18776;SDS011;9517;51.174;4.160;2023-05-10T05:41:12;59.93;;;32.63;;
18776;SDS011;9517;51.174;4.160;2023-05-10T05:43:40;61.90;;;33.07;;
18776;SDS011;9517;51.174;4.160;2023-05-10T05:46:10;57.37;;;32.47;;
18776;SDS011;9517;51.174;4.160;2023-05-10T05:48:37;57.00;;;32.07;;
18776;SDS011;9517;51.174;4.160;2023-05-10T05:51:04;51.87;;;31.23;;
18776;SDS011;9517;51.174;4.160;2023-05-10T05:53:32;56.47;;;32.07;;
18776;SDS011;9517;51.174;4.160;2023-05-10T05:55:59;58.40;;;32.93;;
18776;SDS011;9517;51.174;4.160;2023-05-10T05:58:26;53.80;;;33.20;;
18776;SDS011;9517;51.174;4.160;2023-05-10T06:00:55;57.20;;;34.40;;
18776;SDS011;9517;51.174;4.160;2023-05-10T06:03:22;57.50;;;33.70;;
18776;SDS011;9517;51.174;4.160;2023-05-10T06:05:50;60.57;;;32.67;;
18776;SDS011;9517;51.174;4.160;2023-05-10T06:08:17;56.37;;;34.13;;
18776;SDS011;9517;51.174;4.160;2023-05-10T06:10:44;64.43;;;36.83;;
18776;SDS011;9517;51.174;4.160;2023-05-10T06:13:11;77.23;;;41.90;;
18776;SDS011;9517;51.174;4.160;2023-05-10T06:15:38;82.17;;;43.87;;
18776;SDS011;9517;51.174;4.160;2023-05-10T06:18:07;89.63;;;45.87;;
18776;SDS011;9517;51.174;4.160;2023-05-10T06:20:34;76.33;;;41.60;;
18776;SDS011;9517;51.174;4.160;2023-05-10T06:23:01;77.90;;;42.77;;
18776;SDS011;9517;51.174;4.160;2023-05-10T06:25:28;72.47;;;40.63;;
18776;SDS011;9517;51.174;4.160;2023-05-10T06:27:55;69.80;;;39.17;;
18776;SDS011;9517;51.174;4.160;2023-05-10T06:30:23;71.60;;;39.63;;
18776;SDS011;9517;51.174;4.160;2023-05-10T06:32:53;71.93;;;40.83;;
18776;SDS011;9517;51.174;4.160;2023-05-10T06:35:22;75.30;;;40.50;;
18776;SDS011;9517;51.174;4.160;2023-05-10T06:37:49;75.70;;;41.17;;
18776;SDS011;9517;51.174;4.160;2023-05-10T06:40:17;74.27;;;40.37;;
18776;SDS011;9517;51.174;4.160;2023-05-10T06:42:44;71.60;;;39.60;;
18776;SDS011;9517;51.174;4.160;2023-05-10T06:45:12;74.00;;;40.43;;
18776;SDS011;9517;51.174;4.160;2023-05-10T06:47:39;66.40;;;36.93;;
18776;SDS011;9517;51.174;4.160;2023-05-10T06:50:07;59.20;;;33.97;;
18776;SDS011;9517;51.174;4.160;2023-05-10T06:52:36;64.60;;;35.97;;
18776;SDS011;9517;51.174;4.160;2023-05-10T06:55:04;63.93;;;35.87;;
18776;SDS011;9517;51.174;4.160;2023-05-10T06:57:31;55.53;;;33.50;;
18776;SDS011;9517;51.174;4.160;2023-05-10T06:59:59;54.67;;;32.73;;
18776;SDS011;9517;51.174;4.160;2023-05-10T07:02:26;62.40;;;34.33;;
18776;SDS011;9517;51.174;4.160;2023-05-10T07:04:53;63.73;;;37.47;;
18776;SDS011;9517;51.174;4.160;2023-05-10T07:07:20;71.33;;;40.90;;
18776;SDS011;9517;51.174;4.160;2023-05-10T07:09:49;71.83;;;41.73;;
18776;SDS011;9517;51.174;4.160;2023-05-10T07:12:16;75.83;;;42.83;;
18776;SDS011;9517;51.174;4.160;2023-05-10T07:14:43;69.43;;;40.33;;
18776;SDS011;9517;51.174;4.160;2023-05-10T07:17:10;66.67;;;37.63;;
18776;SDS011;9517;51.174;4.160;2023-05-10T07:19:37;64.00;;;36.00;;
18776;SDS011;9517;51.174;4.160;2023-05-10T07:22:05;51.00;;;29.40;;
18776;SDS011;9517;51.174;4.160;2023-05-10T07:24:32;47.43;;;29.50;;
18776;SDS011;9517;51.174;4.160;2023-05-10T07:27:01;49.10;;;27.37;;
18776;SDS011;9517;51.174;4.160;2023-05-10T07:29:28;64.10;;;36.07;;
18776;SDS011;9517;51.174;4.160;2023-05-10T07:31:55;64.03;;;35.00;;
18776;SDS011;9517;51.174;4.160;2023-05-10T07:34:22;55.83;;;32.77;;
18776;SDS011;9517;51.174;4.160;2023-05-10T07:36:50;49.47;;;28.37;;
18776;SDS011;9517;51.174;4.160;2023-05-10T07:39:17;53.50;;;29.50;;
18776;SDS011;9517;51.174;4.160;2023-05-10T07:41:45;44.67;;;27.10;;
18776;SDS011;9517;51.174;4.160;2023-05-10T07:44:14;50.70;;;29.03;;
18776;SDS011;9517;51.174;4.160;2023-05-10T07:46:43;45.90;;;27.60;;
18776;SDS011;9517;51.174;4.160;2023-05-10T07:49:10;32.73;;;20.67;;
18776;SDS011;9517;51.174;4.160;2023-05-10T07:51:38;36.93;;;23.77;;
18776;SDS011;9517;51.174;4.160;2023-05-10T07:54:05;39.77;;;23.57;;
18776;SDS011;9517;51.174;4.160;2023-05-10T07:56:32;28.47;;;16.27;;
18776;SDS011;9517;51.174;4.160;2023-05-10T07:59:00;37.37;;;22.93;;
18776;SDS011;9517;51.174;4.160;2023-05-10T08:01:31;46.37;;;25.67;;
18776;SDS011;9517;51.174;4.160;2023-05-10T08:03:58;46.47;;;27.07;;
18776;SDS011;9517;51.174;4.160;2023-05-10T08:06:26;46.70;;;24.00;;
18776;SDS011;9517;51.174;4.160;2023-05-10T08:08:55;47.57;;;27.07;;
18776;SDS011;9517;51.174;4.160;2023-05-10T08:11:22;47.80;;;27.07;;
18776;SDS011;9517;51.174;4.160;2023-05-10T08:13:50;46.13;;;25.50;;
18776;SDS011;9517;51.174;4.160;2023-05-10T08:16:17;46.10;;;28.03;;
18776;SDS011;9517;51.174;4.160;2023-05-10T08:18:46;44.17;;;26.70;;
18776;SDS011;9517;51.174;4.160;2023-05-10T08:21:14;40.77;;;23.97;;
18776;SDS011;9517;51.174;4.160;2023-05-10T08:23:41;36.57;;;21.07;;
18776;SDS011;9517;51.174;4.160;2023-05-10T08:26:09;36.93;;;21.60;;
18776;SDS011;9517;51.174;4.160;2023-05-10T08:28:36;45.10;;;26.53;;
18776;SDS011;9517;51.174;4.160;2023-05-10T08:31:03;66.00;;;37.57;;
18776;SDS011;9517;51.174;4.160;2023-05-10T08:33:31;78.03;;;41.10;;
18776;SDS011;9517;51.174;4.160;2023-05-10T08:35:59;69.93;;;38.10;;
18776;SDS011;9517;51.174;4.160;2023-05-10T08:38:26;46.63;;;25.90;;
18776;SDS011;9517;51.174;4.160;2023-05-10T08:40:54;46.27;;;24.50;;
18776;SDS011;9517;51.174;4.160;2023-05-10T08:43:23;35.60;;;19.73;;
18776;SDS011;9517;51.174;4.160;2023-05-10T08:45:54;37.53;;;19.13;;
18776;SDS011;9517;51.174;4.160;2023-05-10T08:48:23;27.80;;;14.77;;
18776;SDS011;9517;51.174;4.160;2023-05-10T08:50:52;19.17;;;9.33;;
18776;SDS011;9517;51.174;4.160;2023-05-10T08:53:22;27.47;;;14.97;;
18776;SDS011;9517;51.174;4.160;2023-05-10T08:55:52;19.20;;;10.20;;
18776;SDS011;9517;51.174;4.160;2023-05-10T08:58:19;17.40;;;9.03;;
18776;SDS011;9517;51.174;4.160;2023-05-10T09:00:48;19.87;;;9.67;;
18776;SDS011;9517;51.174;4.160;2023-05-10T09:03:16;14.37;;;6.83;;
18776;SDS011;9517;51.174;4.160;2023-05-10T09:05:43;16.63;;;7.43;;
18776;SDS011;9517;51.174;4.160;2023-05-10T09:08:11;18.00;;;10.27;;
18776;SDS011;9517;51.174;4.160;2023-05-10T09:10:40;19.03;;;10.83;;
18776;SDS011;9517;51.174;4.160;2023-05-10T09:13:09;21.70;;;11.67;;
18776;SDS011;9517;51.174;4.160;2023-05-10T09:15:37;24.20;;;14.10;;
18776;SDS011;9517;51.174;4.160;2023-05-10T09:18:04;29.23;;;13.97;;
18776;SDS011;9517;51.174;4.160;2023-05-10T09:20:31;37.13;;;19.37;;
18776;SDS011;9517;51.174;4.160;2023-05-10T09:22:58;39.03;;;21.17;;
18776;SDS011;9517;51.174;4.160;2023-05-10T09:25:26;34.43;;;19.30;;
18776;SDS011;9517;51.174;4.160;2023-05-10T09:27:54;32.30;;;19.00;;
18776;SDS011;9517;51.174;4.160;2023-05-10T09:30:25;46.63;;;21.53;;
18776;SDS011;9517;51.174;4.160;2023-05-10T09:32:54;39.20;;;21.33;;
18776;SDS011;9517;51.174;4.160;2023-05-10T09:35:23;40.37;;;20.47;;
18776;SDS011;9517;51.174;4.160;2023-05-10T09:37:51;40.57;;;20.93;;
18776;SDS011;9517;51.174;4.160;2023-05-10T09:40:20;34.90;;;17.70;;
18776;SDS011;9517;51.174;4.160;2023-05-10T09:42:51;37.73;;;17.53;;
18776;SDS011;9517;51.174;4.160;2023-05-10T09:45:22;28.67;;;15.90;;
18776;SDS011;9517;51.174;4.160;2023-05-10T09:47:50;29.27;;;15.20;;
18776;SDS011;9517;51.174;4.160;2023-05-10T09:50:17;30.97;;;16.37;;
18776;SDS011;9517;51.174;4.160;2023-05-10T09:52:46;25.67;;;13.83;;
18776;SDS011;9517;51.174;4.160;2023-05-10T09:55:14;25.63;;;13.67;;
18776;SDS011;9517;51.174;4.160;2023-05-10T09:57:42;23.20;;;12.57;;
18776;SDS011;9517;51.174;4.160;2023-05-10T10:00:09;28.27;;;13.80;;
18776;SDS011;9517;51.174;4.160;2023-05-10T10:02:44;22.50;;;12.47;;
18776;SDS011;9517;51.174;4.160;2023-05-10T10:05:12;23.00;;;11.77;;
18776;SDS011;9517;51.174;4.160;2023-05-10T10:07:40;22.57;;;12.33;;
18776;SDS011;9517;51.174;4.160;2023-05-10T10:10:08;25.93;;;12.60;;
18776;SDS011;9517;51.174;4.160;2023-05-10T10:12:38;23.40;;;13.63;;
18776;SDS011;9517;51.174;4.160;2023-05-10T10:15:10;25.97;;;13.17;;
18776;SDS011;9517;51.174;4.160;2023-05-10T10:17:38;26.90;;;14.27;;
18776;SDS011;9517;51.174;4.160;2023-05-10T10:20:08;26.37;;;14.40;;
18776;SDS011;9517;51.174;4.160;2023-05-10T10:22:36;26.37;;;15.53;;
18776;SDS011;9517;51.174;4.160;2023-05-10T10:25:04;28.10;;;14.07;;
18776;SDS011;9517;51.174;4.160;2023-05-10T10:27:35;26.80;;;15.07;;
18776;SDS011;9517;51.174;4.160;2023-05-10T10:30:12;25.57;;;14.63;;
18776;SDS011;9517;51.174;4.160;2023-05-10T10:32:55;29.97;;;14.17;;
18776;SDS011;9517;51.174;4.160;2023-05-10T10:35:36;27.23;;;14.70;;
18776;SDS011;9517;51.174;4.160;2023-05-10T10:38:03;27.13;;;14.10;;
18776;SDS011;9517;51.174;4.160;2023-05-10T10:40:31;26.00;;;14.33;;
18776;SDS011;9517;51.174;4.160;2023-05-10T10:49:08;27.20;;;13.30;;
18776;SDS011;9517;51.174;4.160;2023-05-10T10:52:21;25.20;;;13.77;;
18776;SDS011;9517;51.174;4.160;2023-05-10T10:54:56;25.60;;;12.80;;
18776;SDS011;9517;51.174;4.160;2023-05-10T10:57:31;26.47;;;13.80;;
18776;SDS011;9517;51.174;4.160;2023-05-10T11:02:49;26.53;;;13.60;;
18776;SDS011;9517;51.174;4.160;2023-05-10T11:05:24;22.60;;;12.70;;
18776;SDS011;9517;51.174;4.160;2023-05-10T11:08:06;28.07;;;14.40;;
18776;SDS011;9517;51.174;4.160;2023-05-10T11:10:34;26.53;;;14.27;;
18776;SDS011;9517;51.174;4.160;2023-05-10T11:13:05;24.23;;;14.27;;
18776;SDS011;9517;51.174;4.160;2023-05-10T11:15:34;23.90;;;12.63;;
18776;SDS011;9517;51.174;4.160;2023-05-10T11:20:48;30.17;;;13.23;;
18776;SDS011;9517;51.174;4.160;2023-05-10T11:23:18;25.10;;;13.10;;
18776;SDS011;9517;51.174;4.160;2023-05-10T11:25:47;26.87;;;13.80;;
18776;SDS011;9517;51.174;4.160;2023-05-10T11:28:16;23.83;;;13.07;;
18776;SDS011;9517;51.174;4.160;2023-05-10T11:30:44;24.63;;;12.70;;
18776;SDS011;9517;51.174;4.160;2023-05-10T11:33:15;22.43;;;13.00;;
18776;SDS011;9517;51.174;4.160;2023-05-10T11:35:43;22.67;;;10.83;;
18776;SDS011;9517;51.174;4.160;2023-05-10T11:38:10;24.67;;;11.93;;
18776;SDS011;9517;51.174;4.160;2023-05-10T11:40:40;22.80;;;12.07;;
18776;SDS011;9517;51.174;4.160;2023-05-10T11:43:08;23.57;;;11.43;;
18776;SDS011;9517;51.174;4.160;2023-05-10T11:45:36;22.67;;;12.73;;
18776;SDS011;9517;51.174;4.160;2023-05-10T11:48:04;24.63;;;13.33;;
18776;SDS011;9517;51.174;4.160;2023-05-10T11:50:31;23.10;;;11.57;;
18776;SDS011;9517;51.174;4.160;2023-05-10T11:52:59;19.87;;;11.27;;
18776;SDS011;9517;51.174;4.160;2023-05-10T11:55:26;21.33;;;11.20;;
18776;SDS011;9517;51.174;4.160;2023-05-10T11:57:59;22.07;;;11.10;;
18776;SDS011;9517;51.174;4.160;2023-05-10T12:00:27;19.33;;;10.63;;
18776;SDS011;9517;51.174;4.160;2023-05-10T12:02:55;21.60;;;12.00;;
18776;SDS011;9517;51.174;4.160;2023-05-10T12:05:22;23.10;;;10.83;;
18776;SDS011;9517;51.174;4.160;2023-05-10T12:07:50;20.63;;;10.97;;
18776;SDS011;9517;51.174;4.160;2023-05-10T12:10:17;22.93;;;9.73;;
18776;SDS011;9517;51.174;4.160;2023-05-10T12:12:52;22.67;;;12.13;;
18776;SDS011;9517;51.174;4.160;2023-05-10T12:15:21;20.07;;;11.57;;
18776;SDS011;9517;51.174;4.160;2023-05-10T12:17:49;20.97;;;12.27;;
18776;SDS011;9517;51.174;4.160;2023-05-10T12:20:17;23.20;;;12.40;;
18776;SDS011;9517;51.174;4.160;2023-05-10T12:22:46;23.87;;;13.13;;
18776;SDS011;9517;51.174;4.160;2023-05-10T12:25:15;21.97;;;12.53;;
18776;SDS011;9517;51.174;4.160;2023-05-10T12:27:49;26.27;;;13.63;;
18776;SDS011;9517;51.174;4.160;2023-05-10T12:30:27;40.87;;;15.13;;
18776;SDS011;9517;51.174;4.160;2023-05-10T12:32:59;27.80;;;12.37;;
18776;SDS011;9517;51.174;4.160;2023-05-10T12:35:29;21.93;;;11.87;;
18776;SDS011;9517;51.174;4.160;2023-05-10T12:37:57;24.70;;;12.27;;
18776;SDS011;9517;51.174;4.160;2023-05-10T12:40:24;24.43;;;13.80;;
18776;SDS011;9517;51.174;4.160;2023-05-10T12:42:52;25.00;;;12.87;;
18776;SDS011;9517;51.174;4.160;2023-05-10T12:45:18;23.60;;;13.50;;
18776;SDS011;9517;51.174;4.160;2023-05-10T12:47:47;27.00;;;15.33;;
18776;SDS011;9517;51.174;4.160;2023-05-10T12:50:14;25.30;;;16.37;;
18776;SDS011;9517;51.174;4.160;2023-05-10T12:52:41;32.10;;;17.93;;
18776;SDS011;9517;51.174;4.160;2023-05-10T12:55:08;31.43;;;17.00;;
18776;SDS011;9517;51.174;4.160;2023-05-10T12:57:35;29.53;;;18.03;;
18776;SDS011;9517;51.174;4.160;2023-05-10T13:00:03;29.43;;;18.67;;
18776;SDS011;9517;51.174;4.160;2023-05-10T13:02:31;27.63;;;18.63;;
18776;SDS011;9517;51.174;4.160;2023-05-10T13:04:59;30.70;;;18.63;;
18776;SDS011;9517;51.174;4.160;2023-05-10T13:07:26;26.70;;;18.30;;
18776;SDS011;9517;51.174;4.160;2023-05-10T13:09:53;30.27;;;19.17;;
18776;SDS011;9517;51.174;4.160;2023-05-10T13:12:20;31.47;;;19.43;;
18776;SDS011;9517;51.174;4.160;2023-05-10T13:14:47;34.13;;;20.47;;
18776;SDS011;9517;51.174;4.160;2023-05-10T13:17:14;33.60;;;19.97;;
18776;SDS011;9517;51.174;4.160;2023-05-10T13:19:41;31.27;;;20.60;;
18776;SDS011;9517;51.174;4.160;2023-05-10T13:22:10;30.70;;;20.43;;
18776;SDS011;9517;51.174;4.160;2023-05-10T13:24:37;32.13;;;20.60;;
18776;SDS011;9517;51.174;4.160;2023-05-10T13:27:04;35.67;;;20.60;;
18776;SDS011;9517;51.174;4.160;2023-05-10T13:29:31;35.93;;;21.77;;
18776;SDS011;9517;51.174;4.160;2023-05-10T13:31:58;36.00;;;20.87;;
18776;SDS011;9517;51.174;4.160;2023-05-10T13:34:26;36.90;;;21.80;;
18776;SDS011;9517;51.174;4.160;2023-05-10T13:36:53;33.90;;;21.77;;
18776;SDS011;9517;51.174;4.160;2023-05-10T13:39:23;42.60;;;22.17;;
18776;SDS011;9517;51.174;4.160;2023-05-10T13:41:50;33.57;;;20.90;;
18776;SDS011;9517;51.174;4.160;2023-05-10T13:44:17;36.13;;;20.87;;
18776;SDS011;9517;51.174;4.160;2023-05-10T13:46:44;34.17;;;19.13;;
18776;SDS011;9517;51.174;4.160;2023-05-10T13:49:11;34.37;;;20.03;;
18776;SDS011;9517;51.174;4.160;2023-05-10T13:51:38;34.43;;;20.70;;
18776;SDS011;9517;51.174;4.160;2023-05-10T13:54:05;32.30;;;19.77;;
18776;SDS011;9517;51.174;4.160;2023-05-10T13:56:33;34.97;;;21.00;;
18776;SDS011;9517;51.174;4.160;2023-05-10T13:59:01;30.27;;;19.33;;
18776;SDS011;9517;51.174;4.160;2023-05-10T14:01:28;34.77;;;20.20;;
18776;SDS011;9517;51.174;4.160;2023-05-10T14:03:55;30.47;;;19.30;;
18776;SDS011;9517;51.174;4.160;2023-05-10T14:06:22;34.07;;;20.20;;
18776;SDS011;9517;51.174;4.160;2023-05-10T14:08:49;32.47;;;21.27;;
18776;SDS011;9517;51.174;4.160;2023-05-10T14:11:17;37.20;;;21.60;;
18776;SDS011;9517;51.174;4.160;2023-05-10T14:13:45;35.40;;;19.47;;
18776;SDS011;9517;51.174;4.160;2023-05-10T14:16:12;31.13;;;18.80;;
18776;SDS011;9517;51.174;4.160;2023-05-10T14:18:40;16.80;;;10.03;;
18776;SDS011;9517;51.174;4.160;2023-05-10T14:21:07;16.27;;;7.20;;
18776;SDS011;9517;51.174;4.160;2023-05-10T14:23:34;11.67;;;4.93;;
18776;SDS011;9517;51.174;4.160;2023-05-10T14:26:01;10.93;;;4.63;;
18776;SDS011;9517;51.174;4.160;2023-05-10T14:28:28;9.23;;;4.87;;
18776;SDS011;9517;51.174;4.160;2023-05-10T14:30:56;11.27;;;5.50;;
18776;SDS011;9517;51.174;4.160;2023-05-10T14:33:24;12.10;;;5.60;;
18776;SDS011;9517;51.174;4.160;2023-05-10T14:35:51;14.63;;;6.67;;
18776;SDS011;9517;51.174;4.160;2023-05-10T14:38:18;11.37;;;7.07;;
18776;SDS011;9517;51.174;4.160;2023-05-10T14:40:45;14.43;;;8.27;;
18776;SDS011;9517;51.174;4.160;2023-05-10T14:43:12;15.37;;;9.63;;
18776;SDS011;9517;51.174;4.160;2023-05-10T14:45:39;15.53;;;8.63;;
18776;SDS011;9517;51.174;4.160;2023-05-10T14:48:08;14.47;;;8.70;;
18776;SDS011;9517;51.174;4.160;2023-05-10T14:50:40;14.73;;;8.93;;
18776;SDS011;9517;51.174;4.160;2023-05-10T14:53:07;14.27;;;9.17;;
18776;SDS011;9517;51.174;4.160;2023-05-10T14:55:34;15.30;;;9.20;;
18776;SDS011;9517;51.174;4.160;2023-05-10T14:58:02;14.80;;;9.40;;
18776;SDS011;9517;51.174;4.160;2023-05-10T15:00:29;20.20;;;11.13;;
18776;SDS011;9517;51.174;4.160;2023-05-10T15:02:56;17.97;;;10.83;;
18776;SDS011;9517;51.174;4.160;2023-05-10T15:05:25;17.10;;;10.60;;
18776;SDS011;9517;51.174;4.160;2023-05-10T15:07:52;17.87;;;10.77;;
18776;SDS011;9517;51.174;4.160;2023-05-10T15:10:19;17.67;;;9.43;;
18776;SDS011;9517;51.174;4.160;2023-05-10T15:12:46;16.53;;;9.50;;
18776;SDS011;9517;51.174;4.160;2023-05-10T15:15:13;15.30;;;9.47;;
18776;SDS011;9517;51.174;4.160;2023-05-10T15:17:41;16.13;;;9.87;;
18776;SDS011;9517;51.174;4.160;2023-05-10T15:20:08;15.87;;;9.63;;
18776;SDS011;9517;51.174;4.160;2023-05-10T15:22:37;15.97;;;9.40;;